sensor_id;sensor_type;location;lat;lon;timestamp;pressure;altitude;pressure_sealevel;temperature;humidity
55014;BME280;40916;51.632;5.552;2022-10-16T00:01:04;1005.922882400014;;;12.193063376769015;0
55014;BME280;40916;51.632;5.552;2022-10-16T00:01:59;1005.9245427143597;;;12.206489213927789;0
55014;BME280;40916;51.632;5.552;2022-10-16T00:03:00;1005.9676451237402;;;12.226624969902122;0
55014;BME280;40916;51.632;5.552;2022-10-16T00:04:00;1005.9758549587849;;;12.233336089114605;0
55014;BME280;40916;51.632;5.552;2022-10-16T00:05:00;1005.9536961257177;;;12.233336089114605;0
55014;BME280;40916;51.632;5.552;2022-10-16T00:06:00;1005.847818003781;;;12.213201532431523;0
55014;BME280;40916;51.632;5.552;2022-10-16T00:07:00;1005.9048626947034;;;12.226624969902122;0
55014;BME280;40916;51.632;5.552;2022-10-16T00:08:00;1005.9655974472402;;;12.240046808808874;0
55014;BME280;40916;51.632;5.552;2022-10-16T00:09:00;1005.901992198714;;;12.233336089114605;0
55014;BME280;40916;51.632;5.552;2022-10-16T00:10:00;1005.8798333800638;;;12.233336089114605;0
55014;BME280;40916;51.632;5.552;2022-10-16T00:11:01;1005.8798333800638;;;12.233336089114605;0
55014;BME280;40916;51.632;5.552;2022-10-16T00:12:01;1005.8605457068759;;;12.226624969902122;0
55014;BME280;40916;51.632;5.552;2022-10-16T00:13:01;1005.8543772162324;;;12.206489213927789;0
55014;BME280;40916;51.632;5.552;2022-10-16T00:14:01;1005.8802276578656;;;12.206489213927789;0
55014;BME280;40916;51.632;5.552;2022-10-16T00:15:01;1005.8461631510842;;;12.199776495414596;0
55014;BME280;40916;51.632;5.552;2022-10-16T00:16:01;1005.9409687536016;;;12.21991345104869;0
55014;BME280;40916;51.632;5.552;2022-10-16T00:17:01;1005.8736688209718;;;12.213201532431523;0
55014;BME280;40916;51.632;5.552;2022-10-16T00:18:01;1005.8580701361052;;;12.206489213927789;0
55014;BME280;40916;51.632;5.552;2022-10-16T00:19:01;1005.8757060803542;;;12.199776495414596;0
55014;BME280;40916;51.632;5.552;2022-10-16T00:20:02;1005.9733791709918;;;12.213201532431523;0
55014;BME280;40916;51.632;5.552;2022-10-16T00:21:02;1005.9696861935033;;;12.213201532431523;0
55014;BME280;40916;51.632;5.552;2022-10-16T00:22:02;1005.9023851839503;;;12.206489213927789;0
55014;BME280;40916;51.632;5.552;2022-10-16T00:23:02;1006.0406806169955;;;12.21991345104869;0
55014;BME280;40916;51.632;5.552;2022-10-16T00:24:03;1006.0238657786017;;;12.233336089114605;0
55014;BME280;40916;51.632;5.552;2022-10-16T00:25:02;1005.9602589538162;;;12.226624969902122;0
55014;BME280;40916;51.632;5.552;2022-10-16T00:26:03;1005.9528727843726;;;12.226624969902122;0
55014;BME280;40916;51.632;5.552;2022-10-16T00:27:02;1005.8654559762116;;;12.206489213927789;0
55014;BME280;40916;51.632;5.552;2022-10-16T00:28:02;1005.9171568704095;;;12.206489213927789;0
55014;BME280;40916;51.632;5.552;2022-10-16T00:29:03;1005.9023851839503;;;12.206489213927789;0
55014;BME280;40916;51.632;5.552;2022-10-16T00:30:03;1005.9725507117496;;;12.206489213927789;0
55014;BME280;40916;51.632;5.552;2022-10-16T00:31:03;1005.9118039576441;;;12.193063376769015;0
55014;BME280;40916;51.632;5.552;2022-10-16T00:32:03;1006.0168658042825;;;12.206489213927789;0
55014;BME280;40916;51.632;5.552;2022-10-16T00:33:03;1005.9839917150346;;;12.179635938588682;0
55014;BME280;40916;51.632;5.552;2022-10-16T00:34:03;1005.9183570832486;;;12.186349857868056;0
55014;BME280;40916;51.632;5.552;2022-10-16T00:35:03;1005.9692208818288;;;12.179635938588682;0
55014;BME280;40916;51.632;5.552;2022-10-16T00:36:04;1005.9802990065529;;;12.179635938588682;0
55014;BME280;40916;51.632;5.552;2022-10-16T00:37:03;1005.9416981672093;;;12.166206898402297;0
55014;BME280;40916;51.632;5.552;2022-10-16T00:38:03;1005.9499211550121;;;12.172921618807809;0
55014;BME280;40916;51.632;5.552;2022-10-16T00:39:03;1005.9979256613666;;;12.172921618807809;0
55014;BME280;40916;51.632;5.552;2022-10-16T00:40:04;1006.0197279706402;;;12.199776495414596;0
55014;BME280;40916;51.632;5.552;2022-10-16T00:41:04;1005.9659932161351;;;12.213201532431523;0
55014;BME280;40916;51.632;5.552;2022-10-16T00:42:04;1005.9327564252268;;;12.213201532431523;0
55014;BME280;40916;51.632;5.552;2022-10-16T00:43:07;1005.9565658690343;;;12.226624969902122;0
55014;BME280;40916;51.632;5.552;2022-10-16T00:44:41;1005.9898036363958;;;12.226624969902122;0
55014;BME280;40916;51.632;5.552;2022-10-16T00:45:05;1006.0312520603757;;;12.233336089114605;0
55014;BME280;40916;51.632;5.552;2022-10-16T00:46:08;1005.9778990631656;;;12.21991345104869;0
55014;BME280;40916;51.632;5.552;2022-10-16T00:47:04;1005.9623002388871;;;12.213201532431523;0
55014;BME280;40916;51.632;5.552;2022-10-16T00:48:06;1005.9947082558537;;;12.206489213927789;0
55014;BME280;40916;51.632;5.552;2022-10-16T00:49:05;1005.9856602605307;;;12.193063376769015;0
55014;BME280;40916;51.632;5.552;2022-10-16T00:50:06;1006.0200815942228;;;12.172921618807809;0
55014;BME280;40916;51.632;5.552;2022-10-16T00:51:05;1005.9576377061289;;;12.1460603322058;0
55014;BME280;40916;51.632;5.552;2022-10-16T00:52:05;1006.0877177608281;;;12.152776255224556;0
55014;BME280;40916;51.632;5.552;2022-10-16T00:53:05;1006.0556403541983;;;12.132627282691814;0
55014;BME280;40916;51.632;5.552;2022-10-16T00:54:06;1006.0437144968452;;;12.125910155949754;0
55014;BME280;40916;51.632;5.552;2022-10-16T00:55:05;1006.0161667748819;;;12.112474697878046;0
55014;BME280;40916;51.632;5.552;2022-10-16T00:56:05;1006.0522346575303;;;12.105756366301264;0
55014;BME280;40916;51.632;5.552;2022-10-16T00:57:06;1006.068982235425;;;12.092318497447618;0
55014;BME280;40916;51.632;5.552;2022-10-16T00:58:06;1005.9942842111097;;;12.085598959923317;0
55014;BME280;40916;51.632;5.552;2022-10-16T00:59:09;1005.9556452652909;;;12.07215867806078;0
55014;BME280;40916;51.632;5.552;2022-10-16T01:00:07;1005.9953928626351;;;12.065437933474797;0
55014;BME280;40916;51.632;5.552;2022-10-16T01:01:06;1006.0516332810555;;;12.07215867806078;0
55014;BME280;40916;51.632;5.552;2022-10-16T01:02:07;1005.9465359571;;;12.058716786287096;0
55014;BME280;40916;51.632;5.552;2022-10-16T01:03:21;1006.0001783614798;;;12.045273283610474;0
55014;BME280;40916;51.632;5.552;2022-10-16T01:04:09;1006.1274312165548;;;12.058716786287096;0
55014;BME280;40916;51.632;5.552;2022-10-16T01:05:07;1006.062936104544;;;12.045273283610474;0
55014;BME280;40916;51.632;5.552;2022-10-16T01:06:09;1006.0149448861384;;;12.045273283610474;0
55014;BME280;40916;51.632;5.552;2022-10-16T01:07:09;1005.9152708819664;;;12.045273283610474;0
55014;BME280;40916;51.632;5.552;2022-10-16T01:08:08;1006.0203707220626;;;12.058716786287096;0
55014;BME280;40916;51.632;5.552;2022-10-16T01:09:09;1005.9428442201125;;;12.058716786287096;0
55014;BME280;40916;51.632;5.552;2022-10-16T01:10:09;1006.0064682408723;;;12.065437933474797;0
55014;BME280;40916;51.632;5.552;2022-10-16T01:11:09;1005.9593371105503;;;12.07215867806078;0
55014;BME280;40916;51.632;5.552;2022-10-16T01:12:09;1005.8718371000506;;;12.05199523637367;0
55014;BME280;40916;51.632;5.552;2022-10-16T01:13:09;1005.928940615902;;;12.065437933474797;0
55014;BME280;40916;51.632;5.552;2022-10-16T01:14:09;1005.8303634659567;;;12.045273283610474;0
55014;BME280;40916;51.632;5.552;2022-10-16T01:15:10;1005.9022351211723;;;12.058716786287096;0
55014;BME280;40916;51.632;5.552;2022-10-16T01:16:09;1005.8488215944699;;;12.045273283610474;0
55014;BME280;40916;51.632;5.552;2022-10-16T01:17:09;1006.0019120263199;;;12.058716786287096;0
55014;BME280;40916;51.632;5.552;2022-10-16T01:18:08;1005.8876926299155;;;12.03182816903831;0
55014;BME280;40916;51.632;5.552;2022-10-16T01:19:09;1005.9078876258795;;;12.045273283610474;0
55014;BME280;40916;51.632;5.552;2022-10-16T01:20:10;1005.9936626280646;;;12.05199523637367;0
55014;BME280;40916;51.632;5.552;2022-10-16T01:21:08;1005.9226541385336;;;12.045273283610474;0
55014;BME280;40916;51.632;5.552;2022-10-16T01:22:08;1005.9430654342337;;;12.03182816903831;0
55014;BME280;40916;51.632;5.552;2022-10-16T01:23:10;1005.8535986046751;;;12.025105006980983;0
55014;BME280;40916;51.632;5.552;2022-10-16T01:24:09;1006.0186365176033;;;12.045273283610474;0
55014;BME280;40916;51.632;5.552;2022-10-16T01:25:09;1006.0177670038806;;;12.038550927873402;0
55014;BME280;40916;51.632;5.552;2022-10-16T01:26:11;1005.9725976075803;;;12.03182816903831;0
55014;BME280;40916;51.632;5.552;2022-10-16T01:27:09;1006.0260197808929;;;12.045273283610474;0
55014;BME280;40916;51.632;5.552;2022-10-16T01:28:09;1005.9910552198231;;;12.03182816903831;0
55014;BME280;40916;51.632;5.552;2022-10-16T01:29:09;1006.0555528388535;;;12.045273283610474;0
55014;BME280;40916;51.632;5.552;2022-10-16T01:30:10;1006.075746827298;;;12.058716786287096;0
55014;BME280;40916;51.632;5.552;2022-10-16T01:31:09;1006.075746827298;;;12.058716786287096;0
55014;BME280;40916;51.632;5.552;2022-10-16T01:32:10;1006.0073311098485;;;12.07215867806078;0
55014;BME280;40916;51.632;5.552;2022-10-16T01:33:10;1006.0664006752997;;;12.07215867806078;0
55014;BME280;40916;51.632;5.552;2022-10-16T01:34:10;1006.0709547040116;;;12.078879020168987;0
55014;BME280;40916;51.632;5.552;2022-10-16T01:35:10;1006.0184066510293;;;12.07215867806078;0
55014;BME280;40916;51.632;5.552;2022-10-16T01:36:10;1005.957611168783;;;12.058716786287096;0
55014;BME280;40916;51.632;5.552;2022-10-16T01:37:12;1006.0257903457502;;;12.07215867806078;0
55014;BME280;40916;51.632;5.552;2022-10-16T01:38:10;1006.0425211609153;;;12.058716786287096;0
55014;BME280;40916;51.632;5.552;2022-10-16T01:39:10;1006.0507697646264;;;12.065437933474797;0
55014;BME280;40916;51.632;5.552;2022-10-16T01:40:11;1006.0692287379596;;;12.065437933474797;0
55014;BME280;40916;51.632;5.552;2022-10-16T01:41:12;1005.973242109402;;;12.065437933474797;0
55014;BME280;40916;51.632;5.552;2022-10-16T01:42:18;1006.0257903457502;;;12.07215867806078;0
55014;BME280;40916;51.632;5.552;2022-10-16T01:43:11;1005.996255569748;;;12.07215867806078;0
55014;BME280;40916;51.632;5.552;2022-10-16T01:44:10;1006.0090520292692;;;12.085598959923317;0
55014;BME280;40916;51.632;5.552;2022-10-16T01:45:11;1005.9741044927886;;;12.07215867806078;0
55014;BME280;40916;51.632;5.552;2022-10-16T01:46:10;1005.9675814706407;;;12.078879020168987;0
55014;BME280;40916;51.632;5.552;2022-10-16T01:47:10;1005.9556452652909;;;12.07215867806078;0
55014;BME280;40916;51.632;5.552;2022-10-16T01:48:10;1005.9979761654695;;;12.085598959923317;0
55014;BME280;40916;51.632;5.552;2022-10-16T01:49:10;1006.0164359390694;;;12.085598959923317;0
55014;BME280;40916;51.632;5.552;2022-10-16T01:50:10;1006.0053600745492;;;12.085598959923317;0
55014;BME280;40916;51.632;5.552;2022-10-16T01:51:11;1006.0698395444869;;;12.099037632865684;0
55014;BME280;40916;51.632;5.552;2022-10-16T01:52:12;1005.9627697218973;;;12.099037632865684;0
55014;BME280;40916;51.632;5.552;2022-10-16T01:53:12;1006.0050902634314;;;12.112474697878046;0
55014;BME280;40916;51.632;5.552;2022-10-16T01:54:11;1006.0317873607607;;;12.11919262771968;0
55014;BME280;40916;51.632;5.552;2022-10-16T01:55:12;1005.9616351059651;;;12.11919262771968;0
55014;BME280;40916;51.632;5.552;2022-10-16T01:56:11;1005.9829372437721;;;12.112474697878046;0
55014;BME280;40916;51.632;5.552;2022-10-16T01:57:11;1005.9525475172411;;;12.105756366301264;0
55014;BME280;40916;51.632;5.552;2022-10-16T01:58:12;1005.9977059230646;;;12.112474697878046;0
55014;BME280;40916;51.632;5.552;2022-10-16T01:59:12;1006.0457041440338;;;12.112474697878046;0
55014;BME280;40916;51.632;5.552;2022-10-16T02:00:12;1006.0917141387773;;;12.125910155949754;0
55014;BME280;40916;51.632;5.552;2022-10-16T02:01:12;1006.0150246912502;;;12.132627282691814;0
55014;BME280;40916;51.632;5.552;2022-10-16T02:02:12;1006.0212528454273;;;12.152776255224556;0
55014;BME280;40916;51.632;5.552;2022-10-16T02:03:12;1006.0229353831776;;;12.166206898402297;0
55014;BME280;40916;51.632;5.552;2022-10-16T02:04:13;1006.0607008156895;;;12.172921618807809;0
55014;BME280;40916;51.632;5.552;2022-10-16T02:05:14;1006.0496228447572;;;12.172921618807809;0
55014;BME280;40916;51.632;5.552;2022-10-16T02:06:12;1006.0393823566726;;;12.179635938588682;0
55014;BME280;40916;51.632;5.552;2022-10-16T02:07:12;1006.0467677775996;;;12.179635938588682;0
55014;BME280;40916;51.632;5.552;2022-10-16T02:08:12;1006.0873876012862;;;12.179635938588682;0
55014;BME280;40916;51.632;5.552;2022-10-16T02:09:12;1006.0726167546277;;;12.179635938588682;0
55014;BME280;40916;51.632;5.552;2022-10-16T02:10:12;1006.0262812475992;;;12.193063376769015;0
55014;BME280;40916;51.632;5.552;2022-10-16T02:11:12;1005.97291358995;;;12.179635938588682;0
55014;BME280;40916;51.632;5.552;2022-10-16T02:12:14;1006.0152027951391;;;12.193063376769015;0
55014;BME280;40916;51.632;5.552;2022-10-16T02:13:13;1006.0078171607663;;;12.193063376769015;0
55014;BME280;40916;51.632;5.552;2022-10-16T02:14:13;1006.1054960412439;;;12.206489213927789;0
55014;BME280;40916;51.632;5.552;2022-10-16T02:15:13;1006.1256204215573;;;12.21991345104869;0
55014;BME280;40916;51.632;5.552;2022-10-16T02:16:13;1006.2232955551788;;;12.233336089114605;0
55014;BME280;40916;51.632;5.552;2022-10-16T02:17:14;1006.1764931178564;;;12.213201532431523;0
55014;BME280;40916;51.632;5.552;2022-10-16T02:18:13;1006.2068672506051;;;12.21991345104869;0
55014;BME280;40916;51.632;5.552;2022-10-16T02:19:13;1006.243797646667;;;12.21991345104869;0
55014;BME280;40916;51.632;5.552;2022-10-16T02:20:13;1006.2511837273208;;;12.21991345104869;0
55014;BME280;40916;51.632;5.552;2022-10-16T02:21:14;1006.253213256611;;;12.206489213927789;0
55014;BME280;40916;51.632;5.552;2022-10-16T02:22:15;1006.1535041151556;;;12.206489213927789;0
55014;BME280;40916;51.632;5.552;2022-10-16T02:23:14;1006.1112160857099;;;12.193063376769015;0
55014;BME280;40916;51.632;5.552;2022-10-16T02:24:15;1006.157197044759;;;12.206489213927789;0
55014;BME280;40916;51.632;5.552;2022-10-16T02:25:15;1006.1313465400583;;;12.206489213927789;0
55014;BME280;40916;51.632;5.552;2022-10-16T02:26:15;1006.0796455483157;;;12.206489213927789;0
55014;BME280;40916;51.632;5.552;2022-10-16T02:27:16;1006.0554527523542;;;12.21991345104869;0
55014;BME280;40916;51.632;5.552;2022-10-16T02:28:16;1006.0427162829152;;;12.206489213927789;0
55014;BME280;40916;51.632;5.552;2022-10-16T02:29:16;1005.9799365593037;;;12.206489213927789;0
55014;BME280;40916;51.632;5.552;2022-10-16T02:30:16;1006.0620106667526;;;12.213201532431523;0
55014;BME280;40916;51.632;5.552;2022-10-16T02:31:16;1006.0188956125057;;;12.193063376769015;0
55014;BME280;40916;51.632;5.552;2022-10-16T02:32:15;1006.0447453374352;;;12.193063376769015;0
55014;BME280;40916;51.632;5.552;2022-10-16T02:33:15;1005.9987625501622;;;12.179635938588682;0
55014;BME280;40916;51.632;5.552;2022-10-16T02:34:15;1006.0229353831776;;;12.166206898402297;0
55014;BME280;40916;51.632;5.552;2022-10-16T02:35:15;1006.0101753633103;;;12.152776255224556;0
55014;BME280;40916;51.632;5.552;2022-10-16T02:36:15;1005.9789476571754;;;12.139344008069347;0
55014;BME280;40916;51.632;5.552;2022-10-16T02:37:15;1006.0877177608281;;;12.152776255224556;0
55014;BME280;40916;51.632;5.552;2022-10-16T02:38:15;1006.0877177608281;;;12.152776255224556;0
55014;BME280;40916;51.632;5.552;2022-10-16T02:39:15;1006.1107161048886;;;12.15949177724896;0
55014;BME280;40916;51.632;5.552;2022-10-16T02:40:15;1006.1394127219312;;;12.152776255224556;0
55014;BME280;40916;51.632;5.552;2022-10-16T02:41:15;1006.0454106076792;;;12.139344008069347;0
55014;BME280;40916;51.632;5.552;2022-10-16T02:42:17;1006.0584836152781;;;12.125910155949754;0
55014;BME280;40916;51.632;5.552;2022-10-16T02:43:16;1006.1323292362639;;;12.125910155949754;0
55014;BME280;40916;51.632;5.552;2022-10-16T02:44:16;1006.1536308537004;;;12.11919262771968;0
55014;BME280;40916;51.632;5.552;2022-10-16T02:45:16;1006.1797426088516;;;12.092318497447618;0
55014;BME280;40916;51.632;5.552;2022-10-16T02:46:16;1006.1411008802638;;;12.078879020168987;0
55014;BME280;40916;51.632;5.552;2022-10-16T02:47:16;1006.2342614942327;;;12.085598959923317;0
55014;BME280;40916;51.632;5.552;2022-10-16T02:48:16;1006.217766577057;;;12.07215867806078;0
55014;BME280;40916;51.632;5.552;2022-10-16T02:49:16;1006.1771561933612;;;12.07215867806078;0
55014;BME280;40916;51.632;5.552;2022-10-16T02:50:16;1006.1091840092394;;;12.03182816903831;0
55014;BME280;40916;51.632;5.552;2022-10-16T02:51:16;1006.1773767841505;;;12.045273283610474;0
55014;BME280;40916;51.632;5.552;2022-10-16T02:52:16;1006.0972355122176;;;12.025105006980983;0
55014;BME280;40916;51.632;5.552;2022-10-16T02:53:16;1006.1313331709392;;;12.03182816903831;0
55014;BME280;40916;51.632;5.552;2022-10-16T02:54:17;1006.1784479309246;;;12.025105006980983;0
55014;BME280;40916;51.632;5.552;2022-10-16T02:55:17;1006.1536650841286;;;12.004933100232847;0
55014;BME280;40916;51.632;5.552;2022-10-16T02:56:17;1006.0448561611126;;;11.991483144010257;0
55014;BME280;40916;51.632;5.552;2022-10-16T02:57:17;1005.9747233677805;;;11.991483144010257;0
55014;BME280;40916;51.632;5.552;2022-10-16T02:58:17;1005.9857969638474;;;11.991483144010257;0
55014;BME280;40916;51.632;5.552;2022-10-16T02:59:17;1005.9757640226354;;;11.971305179600943;0
55014;BME280;40916;51.632;5.552;2022-10-16T03:00:17;1006.0348206243707;;;11.971305179600943;0
55014;BME280;40916;51.632;5.552;2022-10-16T03:01:17;1006.0441166009466;;;11.957851181823973;0
55014;BME280;40916;51.632;5.552;2022-10-16T03:02:17;1005.9555342932752;;;11.957851181823973;0
55014;BME280;40916;51.632;5.552;2022-10-16T03:03:18;1006.0228600694919;;;11.964578382945994;0
55014;BME280;40916;51.632;5.552;2022-10-16T03:04:18;1006.0422027017476;;;11.971305179600943;0
55014;BME280;40916;51.632;5.552;2022-10-16T03:05:18;1006.0117871174051;;;11.964578382945994;0
55014;BME280;40916;51.632;5.552;2022-10-16T03:06:18;1006.06346090305;;;11.964578382945994;0
55014;BME280;40916;51.632;5.552;2022-10-16T03:08:18;1006.1087678426578;;;11.944395565679603;0
55014;BME280;40916;51.632;5.552;2022-10-16T03:09:18;1006.0672741811187;;;11.937667150407567;0
55014;BME280;40916;51.632;5.552;2022-10-16T03:10:18;1006.1438830310515;;;11.930938330169091;0
55014;BME280;40916;51.632;5.552;2022-10-16T03:11:18;1006.1762000587009;;;11.924209104839196;0
55014;BME280;40916;51.632;5.552;2022-10-16T03:12:18;1006.2186830275289;;;11.910749438405027;0
55014;BME280;40916;51.632;5.552;2022-10-16T03:13:18;1006.1541338989422;;;11.897288150104256;0
55014;BME280;40916;51.632;5.552;2022-10-16T03:14:19;1006.1652052452991;;;11.897288150104256;0
55014;BME280;40916;51.632;5.552;2022-10-16T03:15:19;1006.1339056612339;;;11.856894543981976;0
55014;BME280;40916;51.632;5.552;2022-10-16T03:16:19;1006.1339056612339;;;11.856894543981976;0
55014;BME280;40916;51.632;5.552;2022-10-16T03:17:19;1006.1117794676662;;;11.829957345515663;0
55014;BME280;40916;51.632;5.552;2022-10-16T03:18:19;1006.181887723462;;;11.829957345515663;0
55014;BME280;40916;51.632;5.552;2022-10-16T03:19:19;1006.1726585619523;;;11.816486304952278;0
55014;BME280;40916;51.632;5.552;2022-10-16T03:20:19;1006.1708179959842;;;11.829957345515663;0
55014;BME280;40916;51.632;5.552;2022-10-16T03:21:19;1006.266755669984;;;11.829957345515663;0
55014;BME280;40916;51.632;5.552;2022-10-16T03:22:19;1006.2464611176326;;;11.843426758190308;0
55014;BME280;40916;51.632;5.552;2022-10-16T03:23:19;1006.2870513393407;;;11.843426758190308;0
55014;BME280;40916;51.632;5.552;2022-10-16T03:24:20;1006.2888951447283;;;11.829957345515663;0
55014;BME280;40916;51.632;5.552;2022-10-16T03:25:20;1006.3765337955168;;;11.850160854383688;0
55014;BME280;40916;51.632;5.552;2022-10-16T03:26:20;1006.3055014449146;;;11.843426758190308;0
55014;BME280;40916;51.632;5.552;2022-10-16T03:27:20;1006.3746883321423;;;11.836692255276198;0
55014;BME280;40916;51.632;5.552;2022-10-16T03:28:20;1006.344243850478;;;11.829957345515663;0
55014;BME280;40916;51.632;5.552;2022-10-16T03:29:20;1006.43465226789;;;11.843426758190308;0
55014;BME280;40916;51.632;5.552;2022-10-16T03:30:20;1006.4088220915407;;;11.843426758190308;0
55014;BME280;40916;51.632;5.552;2022-10-16T03:31:20;1006.4014420422349;;;11.843426758190308;0
55014;BME280;40916;51.632;5.552;2022-10-16T03:32:20;1006.4198921663994;;;11.843426758190308;0
55014;BME280;40916;51.632;5.552;2022-10-16T03:33:21;1006.4909262633336;;;11.850160854383688;0
55014;BME280;40916;51.632;5.552;2022-10-16T03:34:21;1006.5066002096831;;;11.829957345515663;0
55014;BME280;40916;51.632;5.552;2022-10-16T03:35:21;1006.5840885538847;;;11.829957345515663;0
55014;BME280;40916;51.632;5.552;2022-10-16T03:36:21;1006.5471893357638;;;11.829957345515663;0
55014;BME280;40916;51.632;5.552;2022-10-16T03:37:21;1006.5425701468183;;;11.823222028782954;0
55014;BME280;40916;51.632;5.552;2022-10-16T03:38:21;1006.4641532127791;;;11.816486304952278;0
55014;BME280;40916;51.632;5.552;2022-10-16T03:39:21;1006.50291028985;;;11.829957345515663;0
55014;BME280;40916;51.632;5.552;2022-10-16T03:40:21;1006.4724626949177;;;11.823222028782954;0
55014;BME280;40916;51.632;5.552;2022-10-16T03:41:21;1006.4992203701366;;;11.829957345515663;0
55014;BME280;40916;51.632;5.552;2022-10-16T03:42:21;1006.4733909355018;;;11.829957345515663;0
55014;BME280;40916;51.632;5.552;2022-10-16T03:44:22;1006.3719218498084;;;11.843426758190308;0
55014;BME280;40916;51.632;5.552;2022-10-16T03:45:22;1006.4549468929723;;;11.856894543981976;0
55014;BME280;40916;51.632;5.552;2022-10-16T03:46:22;1006.3912941074678;;;11.850160854383688;0
55014;BME280;40916;51.632;5.552;2022-10-16T03:47:22;1006.4374157723994;;;11.863627827110765;0
55014;BME280;40916;51.632;5.552;2022-10-16T03:48:22;1006.4641653993874;;;11.870360703895592;0
55014;BME280;40916;51.632;5.552;2022-10-16T03:49:22;1006.4678224638125;;;11.897288150104256;0
55014;BME280;40916;51.632;5.552;2022-10-16T03:50:22;1006.4032612205816;;;11.883825238935263;0
55014;BME280;40916;51.632;5.552;2022-10-16T03:51:22;1006.4013942247936;;;11.897288150104256;0
55014;BME280;40916;51.632;5.552;2022-10-16T03:52:22;1006.3921901750391;;;11.883825238935263;0
55014;BME280;40916;51.632;5.552;2022-10-16T03:53:23;1006.3091753138117;;;11.870360703895592;0
55014;BME280;40916;51.632;5.552;2022-10-16T03:54:23;1006.4143322672038;;;11.883825238935263;0
55014;BME280;40916;51.632;5.552;2022-10-16T03:55:23;1006.4548790301736;;;11.910749438405027;0
55014;BME280;40916;51.632;5.552;2022-10-16T03:56:23;1006.4714536672193;;;11.924209104839196;0
55014;BME280;40916;51.632;5.552;2022-10-16T03:57:23;1006.5286213360595;;;11.937667150407567;0
55014;BME280;40916;51.632;5.552;2022-10-16T03:58:23;1006.412402884085;;;11.924209104839196;0
55014;BME280;40916;51.632;5.552;2022-10-16T03:59:23;1006.4621872301991;;;11.937667150407567;0
55014;BME280;40916;51.632;5.552;2022-10-16T04:00:23;1006.5249305513806;;;11.937667150407567;0
55014;BME280;40916;51.632;5.552;2022-10-16T04:01:23;1006.5461720325497;;;11.930938330169091;0
55014;BME280;40916;51.632;5.552;2022-10-16T04:02:23;1006.5811944348302;;;11.944395565679603;0
55014;BME280;40916;51.632;5.552;2022-10-16T04:03:24;1006.5018832653059;;;11.930938330169091;0
55014;BME280;40916;51.632;5.552;2022-10-16T04:04:24;1006.5885761159319;;;11.944395565679603;0
55014;BME280;40916;51.632;5.552;2022-10-16T04:05:24;1006.5451859832978;;;11.951123576110117;0
55014;BME280;40916;51.632;5.552;2022-10-16T04:06:24;1006.5100710305292;;;11.964578382945994;0
55014;BME280;40916;51.632;5.552;2022-10-16T04:07:24;1006.4824408155563;;;11.951123576110117;0
55014;BME280;40916;51.632;5.552;2022-10-16T04:08:24;1006.5432900358323;;;11.964578382945994;0
55014;BME280;40916;51.632;5.552;2022-10-16T04:09:24;1006.5543630397601;;;11.964578382945994;0
55014;BME280;40916;51.632;5.552;2022-10-16T04:10:24;1006.5782985179228;;;11.978031571913537;0
55014;BME280;40916;51.632;5.552;2022-10-16T04:11:24;1006.5763903190908;;;11.991483144010257;0
55014;BME280;40916;51.632;5.552;2022-10-16T04:12:24;1006.5846619021243;;;11.998208324043556;0
55014;BME280;40916;51.632;5.552;2022-10-16T04:13:24;1006.5034539405762;;;11.998208324043556;0
55014;BME280;40916;51.632;5.552;2022-10-16T04:14:25;1006.6003147440379;;;12.004933100232847;0
55014;BME280;40916;51.632;5.552;2022-10-16T04:15:25;1006.566205542126;;;11.998208324043556;0
55014;BME280;40916;51.632;5.552;2022-10-16T04:16:25;1006.6750285242578;;;12.011657472702584;0